sensor_id;sensor_type;location;lat;lon;timestamp;P1;durP1;ratioP1;P2;durP2;ratioP2
35550;SDS011;21655;46.056;13.616;2023-03-08T00:01:32;37.00;;;18.27;;
35550;SDS011;21655;46.056;13.616;2023-03-08T00:03:58;34.45;;;17.00;;
35550;SDS011;21655;46.056;13.616;2023-03-08T00:06:24;34.05;;;16.88;;
35550;SDS011;21655;46.056;13.616;2023-03-08T00:08:57;35.08;;;17.02;;
35550;SDS011;21655;46.056;13.616;2023-03-08T00:11:24;38.10;;;18.13;;
35550;SDS011;21655;46.056;13.616;2023-03-08T00:13:50;36.90;;;17.27;;
35550;SDS011;21655;46.056;13.616;2023-03-08T00:16:16;31.92;;;16.65;;
35550;SDS011;21655;46.056;13.616;2023-03-08T00:18:42;35.25;;;17.10;;
35550;SDS011;21655;46.056;13.616;2023-03-08T00:21:08;34.80;;;17.35;;
35550;SDS011;21655;46.056;13.616;2023-03-08T00:23:36;36.75;;;16.77;;
35550;SDS011;21655;46.056;13.616;2023-03-08T00:26:02;33.97;;;17.27;;
35550;SDS011;21655;46.056;13.616;2023-03-08T00:28:27;29.50;;;17.10;;
35550;SDS011;21655;46.056;13.616;2023-03-08T00:30:57;31.85;;;16.42;;
35550;SDS011;21655;46.056;13.616;2023-03-08T00:33:27;48.28;;;18.83;;
35550;SDS011;21655;46.056;13.616;2023-03-08T00:35:58;33.30;;;17.08;;
35550;SDS011;21655;46.056;13.616;2023-03-08T00:38:25;35.78;;;18.17;;
35550;SDS011;21655;46.056;13.616;2023-03-08T00:40:52;32.60;;;17.42;;
35550;SDS011;21655;46.056;13.616;2023-03-08T00:43:18;29.65;;;17.40;;
35550;SDS011;21655;46.056;13.616;2023-03-08T00:45:44;33.25;;;16.75;;
35550;SDS011;21655;46.056;13.616;2023-03-08T00:48:09;30.27;;;17.80;;
35550;SDS011;21655;46.056;13.616;2023-03-08T00:50:35;34.85;;;17.55;;
35550;SDS011;21655;46.056;13.616;2023-03-08T00:53:00;32.53;;;17.48;;
35550;SDS011;21655;46.056;13.616;2023-03-08T00:55:26;37.05;;;17.88;;
35550;SDS011;21655;46.056;13.616;2023-03-08T00:57:51;36.38;;;18.27;;
35550;SDS011;21655;46.056;13.616;2023-03-08T01:00:17;34.08;;;15.88;;
35550;SDS011;21655;46.056;13.616;2023-03-08T01:02:42;34.40;;;16.85;;
35550;SDS011;21655;46.056;13.616;2023-03-08T01:05:08;35.60;;;17.17;;
35550;SDS011;21655;46.056;13.616;2023-03-08T01:07:34;35.70;;;16.58;;
35550;SDS011;21655;46.056;13.616;2023-03-08T01:09:59;34.22;;;17.35;;
35550;SDS011;21655;46.056;13.616;2023-03-08T01:12:25;31.77;;;16.52;;
35550;SDS011;21655;46.056;13.616;2023-03-08T01:14:51;35.70;;;16.35;;
35550;SDS011;21655;46.056;13.616;2023-03-08T01:17:17;35.42;;;17.55;;
35550;SDS011;21655;46.056;13.616;2023-03-08T01:19:43;31.08;;;16.70;;
35550;SDS011;21655;46.056;13.616;2023-03-08T01:22:09;37.65;;;17.58;;
35550;SDS011;21655;46.056;13.616;2023-03-08T01:24:35;39.83;;;17.50;;
35550;SDS011;21655;46.056;13.616;2023-03-08T01:27:00;32.97;;;17.25;;
35550;SDS011;21655;46.056;13.616;2023-03-08T01:29:26;31.40;;;16.48;;
35550;SDS011;21655;46.056;13.616;2023-03-08T01:31:52;35.25;;;17.30;;
35550;SDS011;21655;46.056;13.616;2023-03-08T01:34:19;29.95;;;16.05;;
35550;SDS011;21655;46.056;13.616;2023-03-08T01:36:44;34.55;;;17.83;;
35550;SDS011;21655;46.056;13.616;2023-03-08T01:39:10;38.30;;;17.48;;
35550;SDS011;21655;46.056;13.616;2023-03-08T01:41:35;36.78;;;17.88;;
35550;SDS011;21655;46.056;13.616;2023-03-08T01:44:01;33.00;;;16.88;;
35550;SDS011;21655;46.056;13.616;2023-03-08T01:46:27;38.95;;;17.27;;
35550;SDS011;21655;46.056;13.616;2023-03-08T01:49:08;33.92;;;17.70;;
35550;SDS011;21655;46.056;13.616;2023-03-08T01:51:58;38.25;;;18.05;;
35550;SDS011;21655;46.056;13.616;2023-03-08T01:54:30;38.35;;;17.50;;
35550;SDS011;21655;46.056;13.616;2023-03-08T01:57:03;33.40;;;17.77;;
35550;SDS011;21655;46.056;13.616;2023-03-08T01:59:33;40.47;;;19.40;;
35550;SDS011;21655;46.056;13.616;2023-03-08T02:01:58;43.38;;;19.50;;
35550;SDS011;21655;46.056;13.616;2023-03-08T02:04:26;37.67;;;18.40;;
35550;SDS011;21655;46.056;13.616;2023-03-08T02:06:51;44.80;;;17.85;;
35550;SDS011;21655;46.056;13.616;2023-03-08T02:09:17;32.47;;;18.95;;
35550;SDS011;21655;46.056;13.616;2023-03-08T02:11:43;34.10;;;17.80;;
35550;SDS011;21655;46.056;13.616;2023-03-08T02:14:09;36.55;;;18.27;;
35550;SDS011;21655;46.056;13.616;2023-03-08T02:16:35;40.65;;;18.80;;
35550;SDS011;21655;46.056;13.616;2023-03-08T02:19:03;39.92;;;19.27;;
35550;SDS011;21655;46.056;13.616;2023-03-08T02:21:31;39.45;;;19.10;;
35550;SDS011;21655;46.056;13.616;2023-03-08T02:24:16;37.53;;;19.23;;
35550;SDS011;21655;46.056;13.616;2023-03-08T02:26:43;37.63;;;18.45;;
35550;SDS011;21655;46.056;13.616;2023-03-08T02:29:09;37.10;;;18.30;;
35550;SDS011;21655;46.056;13.616;2023-03-08T02:31:35;38.90;;;19.08;;
35550;SDS011;21655;46.056;13.616;2023-03-08T02:34:01;44.72;;;19.02;;
35550;SDS011;21655;46.056;13.616;2023-03-08T02:36:26;41.83;;;20.90;;
35550;SDS011;21655;46.056;13.616;2023-03-08T02:38:52;41.00;;;20.10;;
35550;SDS011;21655;46.056;13.616;2023-03-08T02:41:17;47.63;;;20.17;;
35550;SDS011;21655;46.056;13.616;2023-03-08T02:43:44;40.90;;;19.08;;
35550;SDS011;21655;46.056;13.616;2023-03-08T02:46:10;36.47;;;19.35;;
35550;SDS011;21655;46.056;13.616;2023-03-08T02:48:37;40.10;;;20.38;;
35550;SDS011;21655;46.056;13.616;2023-03-08T02:51:03;40.08;;;19.25;;
35550;SDS011;21655;46.056;13.616;2023-03-08T02:53:28;45.60;;;19.67;;
35550;SDS011;21655;46.056;13.616;2023-03-08T02:55:54;40.13;;;19.75;;
35550;SDS011;21655;46.056;13.616;2023-03-08T02:58:19;45.75;;;20.55;;
35550;SDS011;21655;46.056;13.616;2023-03-08T03:00:45;44.05;;;18.83;;
35550;SDS011;21655;46.056;13.616;2023-03-08T03:03:10;40.13;;;18.27;;
35550;SDS011;21655;46.056;13.616;2023-03-08T03:05:39;36.45;;;17.08;;
35550;SDS011;21655;46.056;13.616;2023-03-08T03:08:06;37.03;;;17.52;;
35550;SDS011;21655;46.056;13.616;2023-03-08T03:10:33;36.50;;;17.73;;
35550;SDS011;21655;46.056;13.616;2023-03-08T03:12:59;39.22;;;16.98;;
35550;SDS011;21655;46.056;13.616;2023-03-08T03:15:25;32.30;;;17.38;;
35550;SDS011;21655;46.056;13.616;2023-03-08T03:17:51;36.72;;;17.92;;
35550;SDS011;21655;46.056;13.616;2023-03-08T03:20:17;34.58;;;16.63;;
35550;SDS011;21655;46.056;13.616;2023-03-08T03:22:42;37.20;;;16.50;;
35550;SDS011;21655;46.056;13.616;2023-03-08T03:25:08;31.65;;;17.48;;
35550;SDS011;21655;46.056;13.616;2023-03-08T03:27:34;37.80;;;16.83;;
35550;SDS011;21655;46.056;13.616;2023-03-08T03:29:59;36.53;;;16.20;;
35550;SDS011;21655;46.056;13.616;2023-03-08T03:32:25;30.23;;;16.60;;
35550;SDS011;21655;46.056;13.616;2023-03-08T03:34:51;31.83;;;16.38;;
35550;SDS011;21655;46.056;13.616;2023-03-08T03:37:17;36.65;;;15.75;;
35550;SDS011;21655;46.056;13.616;2023-03-08T03:39:42;34.55;;;16.00;;
35550;SDS011;21655;46.056;13.616;2023-03-08T03:42:08;37.22;;;16.95;;
35550;SDS011;21655;46.056;13.616;2023-03-08T03:44:33;33.10;;;16.48;;
35550;SDS011;21655;46.056;13.616;2023-03-08T03:46:59;34.60;;;16.25;;
35550;SDS011;21655;46.056;13.616;2023-03-08T03:49:24;31.95;;;16.52;;
35550;SDS011;21655;46.056;13.616;2023-03-08T03:51:50;33.20;;;16.30;;
35550;SDS011;21655;46.056;13.616;2023-03-08T03:54:16;35.60;;;16.17;;
35550;SDS011;21655;46.056;13.616;2023-03-08T03:56:41;31.38;;;15.98;;
35550;SDS011;21655;46.056;13.616;2023-03-08T03:59:07;36.47;;;16.17;;
35550;SDS011;21655;46.056;13.616;2023-03-08T04:01:32;34.33;;;15.82;;
35550;SDS011;21655;46.056;13.616;2023-03-08T04:03:57;33.22;;;15.30;;
35550;SDS011;21655;46.056;13.616;2023-03-08T04:06:24;30.67;;;14.77;;
35550;SDS011;21655;46.056;13.616;2023-03-08T04:08:53;36.30;;;16.27;;
35550;SDS011;21655;46.056;13.616;2023-03-08T04:11:20;29.95;;;15.23;;
35550;SDS011;21655;46.056;13.616;2023-03-08T04:13:48;37.50;;;15.90;;
35550;SDS011;21655;46.056;13.616;2023-03-08T04:16:18;33.75;;;15.43;;
35550;SDS011;21655;46.056;13.616;2023-03-08T04:21:16;33.03;;;15.27;;
35550;SDS011;21655;46.056;13.616;2023-03-08T04:23:42;30.65;;;15.65;;
35550;SDS011;21655;46.056;13.616;2023-03-08T04:26:07;33.38;;;15.00;;
35550;SDS011;21655;46.056;13.616;2023-03-08T04:28:33;33.58;;;16.30;;
35550;SDS011;21655;46.056;13.616;2023-03-08T04:30:59;33.55;;;15.60;;
35550;SDS011;21655;46.056;13.616;2023-03-08T04:33:34;34.40;;;15.10;;
35550;SDS011;21655;46.056;13.616;2023-03-08T04:36:00;39.70;;;16.33;;
35550;SDS011;21655;46.056;13.616;2023-03-08T04:38:25;36.17;;;16.50;;
35550;SDS011;21655;46.056;13.616;2023-03-08T04:40:51;33.67;;;16.13;;
35550;SDS011;21655;46.056;13.616;2023-03-08T04:43:26;34.03;;;15.98;;
35550;SDS011;21655;46.056;13.616;2023-03-08T04:45:52;33.17;;;16.50;;
35550;SDS011;21655;46.056;13.616;2023-03-08T04:48:17;27.60;;;15.73;;
35550;SDS011;21655;46.056;13.616;2023-03-08T04:50:43;31.52;;;15.80;;
35550;SDS011;21655;46.056;13.616;2023-03-08T04:53:08;35.45;;;16.15;;
35550;SDS011;21655;46.056;13.616;2023-03-08T04:55:37;32.78;;;16.48;;
35550;SDS011;21655;46.056;13.616;2023-03-08T04:58:02;34.55;;;16.33;;
35550;SDS011;21655;46.056;13.616;2023-03-08T05:00:28;35.95;;;15.63;;
35550;SDS011;21655;46.056;13.616;2023-03-08T05:02:53;37.80;;;15.98;;
35550;SDS011;21655;46.056;13.616;2023-03-08T05:05:19;33.25;;;16.23;;
35550;SDS011;21655;46.056;13.616;2023-03-08T05:07:44;30.25;;;16.25;;
35550;SDS011;21655;46.056;13.616;2023-03-08T05:10:10;35.13;;;15.57;;
35550;SDS011;21655;46.056;13.616;2023-03-08T05:12:35;31.80;;;15.70;;
35550;SDS011;21655;46.056;13.616;2023-03-08T05:15:01;34.53;;;15.90;;
35550;SDS011;21655;46.056;13.616;2023-03-08T05:17:26;36.08;;;16.55;;
35550;SDS011;21655;46.056;13.616;2023-03-08T05:19:52;33.88;;;15.50;;
35550;SDS011;21655;46.056;13.616;2023-03-08T05:22:17;33.50;;;16.08;;
35550;SDS011;21655;46.056;13.616;2023-03-08T05:24:43;38.17;;;16.10;;
35550;SDS011;21655;46.056;13.616;2023-03-08T05:27:10;38.05;;;16.50;;
35550;SDS011;21655;46.056;13.616;2023-03-08T05:29:35;32.25;;;15.75;;
35550;SDS011;21655;46.056;13.616;2023-03-08T05:32:01;36.00;;;17.73;;
35550;SDS011;21655;46.056;13.616;2023-03-08T05:34:27;35.88;;;16.25;;
35550;SDS011;21655;46.056;13.616;2023-03-08T05:36:53;35.90;;;16.92;;
35550;SDS011;21655;46.056;13.616;2023-03-08T05:39:19;36.10;;;16.15;;
35550;SDS011;21655;46.056;13.616;2023-03-08T05:41:44;43.15;;;16.42;;
35550;SDS011;21655;46.056;13.616;2023-03-08T05:44:10;36.17;;;16.40;;
35550;SDS011;21655;46.056;13.616;2023-03-08T05:46:35;41.72;;;16.75;;
35550;SDS011;21655;46.056;13.616;2023-03-08T05:49:04;37.72;;;16.80;;
35550;SDS011;21655;46.056;13.616;2023-03-08T05:51:30;36.55;;;16.27;;
35550;SDS011;21655;46.056;13.616;2023-03-08T05:53:56;36.85;;;16.45;;
35550;SDS011;21655;46.056;13.616;2023-03-08T05:56:22;35.47;;;16.17;;
35550;SDS011;21655;46.056;13.616;2023-03-08T05:58:49;38.38;;;17.60;;
35550;SDS011;21655;46.056;13.616;2023-03-08T06:01:17;35.20;;;16.95;;
35550;SDS011;21655;46.056;13.616;2023-03-08T06:03:43;37.53;;;17.77;;
35550;SDS011;21655;46.056;13.616;2023-03-08T06:06:09;36.97;;;17.95;;
35550;SDS011;21655;46.056;13.616;2023-03-08T06:08:35;40.20;;;17.85;;
35550;SDS011;21655;46.056;13.616;2023-03-08T06:11:01;35.75;;;18.50;;
35550;SDS011;21655;46.056;13.616;2023-03-08T06:13:26;35.25;;;16.80;;
35550;SDS011;21655;46.056;13.616;2023-03-08T06:15:53;38.78;;;16.45;;
35550;SDS011;21655;46.056;13.616;2023-03-08T06:18:22;37.92;;;17.70;;
35550;SDS011;21655;46.056;13.616;2023-03-08T06:21:21;37.10;;;16.38;;
35550;SDS011;21655;46.056;13.616;2023-03-08T06:23:41;28.83;;;16.05;;
35550;SDS011;21655;46.056;13.616;2023-03-08T06:26:08;39.10;;;15.73;;
35550;SDS011;21655;46.056;13.616;2023-03-08T06:28:35;28.90;;;15.57;;
35550;SDS011;21655;46.056;13.616;2023-03-08T06:31:01;38.72;;;16.35;;
35550;SDS011;21655;46.056;13.616;2023-03-08T06:33:28;32.75;;;15.07;;
35550;SDS011;21655;46.056;13.616;2023-03-08T06:36:05;31.67;;;14.93;;
35550;SDS011;21655;46.056;13.616;2023-03-08T06:38:32;37.13;;;16.70;;
35550;SDS011;21655;46.056;13.616;2023-03-08T06:41:00;29.88;;;15.13;;
35550;SDS011;21655;46.056;13.616;2023-03-08T06:43:26;38.22;;;15.00;;
35550;SDS011;21655;46.056;13.616;2023-03-08T06:45:52;41.95;;;16.70;;
35550;SDS011;21655;46.056;13.616;2023-03-08T06:48:18;34.75;;;15.35;;
35550;SDS011;21655;46.056;13.616;2023-03-08T06:50:44;36.88;;;15.70;;
35550;SDS011;21655;46.056;13.616;2023-03-08T06:53:09;37.22;;;16.52;;
35550;SDS011;21655;46.056;13.616;2023-03-08T06:55:35;35.13;;;16.67;;
35550;SDS011;21655;46.056;13.616;2023-03-08T06:58:02;37.15;;;15.95;;
35550;SDS011;21655;46.056;13.616;2023-03-08T07:00:28;35.38;;;17.60;;
35550;SDS011;21655;46.056;13.616;2023-03-08T07:02:54;40.30;;;17.48;;
35550;SDS011;21655;46.056;13.616;2023-03-08T07:05:20;32.60;;;15.63;;
35550;SDS011;21655;46.056;13.616;2023-03-08T07:07:45;34.22;;;15.55;;
35550;SDS011;21655;46.056;13.616;2023-03-08T07:10:11;38.03;;;16.65;;
35550;SDS011;21655;46.056;13.616;2023-03-08T07:12:42;30.25;;;14.95;;
35550;SDS011;21655;46.056;13.616;2023-03-08T07:15:12;36.88;;;15.90;;
35550;SDS011;21655;46.056;13.616;2023-03-08T07:17:42;34.10;;;15.23;;
35550;SDS011;21655;46.056;13.616;2023-03-08T07:20:09;38.50;;;16.65;;
35550;SDS011;21655;46.056;13.616;2023-03-08T07:22:35;35.47;;;16.70;;
35550;SDS011;21655;46.056;13.616;2023-03-08T07:25:01;36.95;;;16.63;;
35550;SDS011;21655;46.056;13.616;2023-03-08T07:27:26;35.58;;;15.63;;
35550;SDS011;21655;46.056;13.616;2023-03-08T07:29:52;38.17;;;16.25;;
35550;SDS011;21655;46.056;13.616;2023-03-08T07:32:17;30.05;;;15.52;;
35550;SDS011;21655;46.056;13.616;2023-03-08T07:34:43;29.60;;;15.95;;
35550;SDS011;21655;46.056;13.616;2023-03-08T07:37:12;32.50;;;15.68;;
35550;SDS011;21655;46.056;13.616;2023-03-08T07:39:39;32.40;;;16.60;;
35550;SDS011;21655;46.056;13.616;2023-03-08T07:42:04;42.92;;;17.15;;
35550;SDS011;21655;46.056;13.616;2023-03-08T07:44:30;37.33;;;16.27;;
35550;SDS011;21655;46.056;13.616;2023-03-08T07:46:55;32.30;;;15.32;;
35550;SDS011;21655;46.056;13.616;2023-03-08T07:49:21;34.08;;;15.55;;
35550;SDS011;21655;46.056;13.616;2023-03-08T07:51:49;35.45;;;14.52;;
35550;SDS011;21655;46.056;13.616;2023-03-08T07:54:17;31.98;;;14.30;;
35550;SDS011;21655;46.056;13.616;2023-03-08T07:56:43;31.83;;;15.65;;
35550;SDS011;21655;46.056;13.616;2023-03-08T07:59:08;36.17;;;14.60;;
35550;SDS011;21655;46.056;13.616;2023-03-08T08:01:34;31.13;;;13.93;;
35550;SDS011;21655;46.056;13.616;2023-03-08T08:03:59;38.80;;;14.45;;
35550;SDS011;21655;46.056;13.616;2023-03-08T08:06:25;34.92;;;14.15;;
35550;SDS011;21655;46.056;13.616;2023-03-08T08:08:53;30.88;;;15.00;;
35550;SDS011;21655;46.056;13.616;2023-03-08T08:11:19;37.67;;;14.07;;
35550;SDS011;21655;46.056;13.616;2023-03-08T08:13:45;30.52;;;13.70;;
35550;SDS011;21655;46.056;13.616;2023-03-08T08:16:14;34.72;;;13.52;;
35550;SDS011;21655;46.056;13.616;2023-03-08T08:18:40;33.95;;;12.95;;
35550;SDS011;21655;46.056;13.616;2023-03-08T08:21:06;29.55;;;14.50;;
35550;SDS011;21655;46.056;13.616;2023-03-08T08:23:34;32.58;;;13.50;;
35550;SDS011;21655;46.056;13.616;2023-03-08T08:26:04;29.30;;;13.27;;
35550;SDS011;21655;46.056;13.616;2023-03-08T08:28:32;31.25;;;12.93;;
35550;SDS011;21655;46.056;13.616;2023-03-08T08:33:33;25.90;;;11.90;;
35550;SDS011;21655;46.056;13.616;2023-03-08T08:36:01;26.13;;;10.98;;
35550;SDS011;21655;46.056;13.616;2023-03-08T08:38:28;27.70;;;11.70;;
35550;SDS011;21655;46.056;13.616;2023-03-08T08:40:54;24.55;;;10.50;;
35550;SDS011;21655;46.056;13.616;2023-03-08T08:43:23;28.20;;;11.75;;
35550;SDS011;21655;46.056;13.616;2023-03-08T08:45:52;19.75;;;10.10;;
35550;SDS011;21655;46.056;13.616;2023-03-08T08:48:19;27.05;;;11.43;;
35550;SDS011;21655;46.056;13.616;2023-03-08T08:50:44;25.17;;;10.40;;
35550;SDS011;21655;46.056;13.616;2023-03-08T08:53:10;25.70;;;10.27;;
35550;SDS011;21655;46.056;13.616;2023-03-08T08:55:35;28.52;;;10.95;;
35550;SDS011;21655;46.056;13.616;2023-03-08T08:58:01;24.35;;;10.82;;
35550;SDS011;21655;46.056;13.616;2023-03-08T09:00:28;22.52;;;10.93;;
35550;SDS011;21655;46.056;13.616;2023-03-08T09:02:54;28.48;;;11.23;;
35550;SDS011;21655;46.056;13.616;2023-03-08T09:05:20;26.38;;;10.93;;
35550;SDS011;21655;46.056;13.616;2023-03-08T09:07:45;23.00;;;10.43;;
35550;SDS011;21655;46.056;13.616;2023-03-08T09:10:11;22.23;;;9.95;;
35550;SDS011;21655;46.056;13.616;2023-03-08T09:12:36;26.30;;;10.95;;
35550;SDS011;21655;46.056;13.616;2023-03-08T09:15:03;20.50;;;10.35;;
35550;SDS011;21655;46.056;13.616;2023-03-08T09:17:30;22.35;;;10.45;;
35550;SDS011;21655;46.056;13.616;2023-03-08T09:19:57;29.85;;;11.20;;
35550;SDS011;21655;46.056;13.616;2023-03-08T09:22:23;21.75;;;10.35;;
35550;SDS011;21655;46.056;13.616;2023-03-08T09:24:50;34.28;;;10.38;;
35550;SDS011;21655;46.056;13.616;2023-03-08T09:27:16;26.65;;;10.80;;
35550;SDS011;21655;46.056;13.616;2023-03-08T09:29:41;35.00;;;10.82;;
35550;SDS011;21655;46.056;13.616;2023-03-08T09:32:07;30.50;;;10.65;;
35550;SDS011;21655;46.056;13.616;2023-03-08T09:34:32;24.25;;;10.10;;
35550;SDS011;21655;46.056;13.616;2023-03-08T09:36:58;24.55;;;11.20;;
35550;SDS011;21655;46.056;13.616;2023-03-08T09:39:23;26.52;;;10.88;;
35550;SDS011;21655;46.056;13.616;2023-03-08T09:41:50;25.92;;;10.90;;
35550;SDS011;21655;46.056;13.616;2023-03-08T09:47:00;20.48;;;10.85;;
35550;SDS011;21655;46.056;13.616;2023-03-08T09:49:34;33.60;;;12.23;;
35550;SDS011;21655;46.056;13.616;2023-03-08T09:54:37;29.67;;;10.63;;
35550;SDS011;21655;46.056;13.616;2023-03-08T09:57:05;27.15;;;11.40;;
35550;SDS011;21655;46.056;13.616;2023-03-08T09:59:43;24.40;;;10.52;;
35550;SDS011;21655;46.056;13.616;2023-03-08T10:15:54;26.35;;;10.40;;
35550;SDS011;21655;46.056;13.616;2023-03-08T10:18:34;24.42;;;10.32;;
35550;SDS011;21655;46.056;13.616;2023-03-08T10:21:09;24.75;;;10.15;;
35550;SDS011;21655;46.056;13.616;2023-03-08T10:23:37;22.83;;;9.82;;
35550;SDS011;21655;46.056;13.616;2023-03-08T10:26:08;28.23;;;9.30;;
35550;SDS011;21655;46.056;13.616;2023-03-08T10:28:35;21.25;;;9.88;;
35550;SDS011;21655;46.056;13.616;2023-03-08T10:31:01;25.88;;;9.73;;
35550;SDS011;21655;46.056;13.616;2023-03-08T10:33:33;21.73;;;10.02;;
35550;SDS011;21655;46.056;13.616;2023-03-08T10:38:31;23.48;;;9.45;;
35550;SDS011;21655;46.056;13.616;2023-03-08T10:41:05;28.60;;;10.25;;
35550;SDS011;21655;46.056;13.616;2023-03-08T10:43:52;30.55;;;9.93;;
35550;SDS011;21655;46.056;13.616;2023-03-08T10:46:20;28.17;;;10.52;;
35550;SDS011;21655;46.056;13.616;2023-03-08T10:48:50;24.80;;;9.07;;
35550;SDS011;21655;46.056;13.616;2023-03-08T10:51:21;26.35;;;10.65;;
35550;SDS011;21655;46.056;13.616;2023-03-08T10:53:55;33.33;;;9.25;;
35550;SDS011;21655;46.056;13.616;2023-03-08T10:56:26;32.38;;;9.15;;
35550;SDS011;21655;46.056;13.616;2023-03-08T10:59:45;23.48;;;8.60;;
35550;SDS011;21655;46.056;13.616;2023-03-08T11:02:22;26.77;;;7.30;;
35550;SDS011;21655;46.056;13.616;2023-03-08T11:04:51;14.27;;;5.95;;
35550;SDS011;21655;46.056;13.616;2023-03-08T11:07:31;10.35;;;4.50;;
35550;SDS011;21655;46.056;13.616;2023-03-08T11:10:09;9.55;;;5.57;;
35550;SDS011;21655;46.056;13.616;2023-03-08T11:12:43;10.07;;;4.30;;
35550;SDS011;21655;46.056;13.616;2023-03-08T11:15:12;13.85;;;4.43;;
35550;SDS011;21655;46.056;13.616;2023-03-08T11:17:38;10.85;;;5.07;;
35550;SDS011;21655;46.056;13.616;2023-03-08T11:23:15;12.23;;;4.60;;
35550;SDS011;21655;46.056;13.616;2023-03-08T11:26:11;10.70;;;4.40;;
35550;SDS011;21655;46.056;13.616;2023-03-08T11:28:50;9.60;;;4.65;;
35550;SDS011;21655;46.056;13.616;2023-03-08T11:34:16;10.30;;;4.40;;
35550;SDS011;21655;46.056;13.616;2023-03-08T11:37:03;13.73;;;4.07;;
35550;SDS011;21655;46.056;13.616;2023-03-08T11:39:37;11.80;;;5.65;;
35550;SDS011;21655;46.056;13.616;2023-03-08T11:42:21;15.45;;;7.28;;
35550;SDS011;21655;46.056;13.616;2023-03-08T11:50:40;8.77;;;3.33;;
35550;SDS011;21655;46.056;13.616;2023-03-08T12:01:36;5.80;;;2.63;;
35550;SDS011;21655;46.056;13.616;2023-03-08T12:06:49;7.18;;;2.95;;
35550;SDS011;21655;46.056;13.616;2023-03-08T12:09:24;5.10;;;2.83;;
35550;SDS011;21655;46.056;13.616;2023-03-08T12:11:58;22.88;;;14.05;;
35550;SDS011;21655;46.056;13.616;2023-03-08T12:14:55;8.52;;;3.40;;
35550;SDS011;21655;46.056;13.616;2023-03-08T12:17:33;5.28;;;2.70;;
35550;SDS011;21655;46.056;13.616;2023-03-08T12:20:00;11.73;;;4.13;;
35550;SDS011;21655;46.056;13.616;2023-03-08T12:22:33;6.97;;;3.10;;
35550;SDS011;21655;46.056;13.616;2023-03-08T12:28:37;7.18;;;3.08;;
35550;SDS011;21655;46.056;13.616;2023-03-08T12:33:54;7.97;;;3.20;;
35550;SDS011;21655;46.056;13.616;2023-03-08T12:36:22;6.13;;;2.88;;
35550;SDS011;21655;46.056;13.616;2023-03-08T12:39:04;6.72;;;2.80;;
35550;SDS011;21655;46.056;13.616;2023-03-08T12:41:32;8.00;;;2.92;;
35550;SDS011;21655;46.056;13.616;2023-03-08T12:44:20;7.53;;;3.58;;
35550;SDS011;21655;46.056;13.616;2023-03-08T12:46:49;7.03;;;2.88;;
35550;SDS011;21655;46.056;13.616;2023-03-08T12:49:18;8.48;;;4.18;;
35550;SDS011;21655;46.056;13.616;2023-03-08T12:52:01;8.23;;;2.78;;
35550;SDS011;21655;46.056;13.616;2023-03-08T12:54:42;9.50;;;3.05;;
35550;SDS011;21655;46.056;13.616;2023-03-08T12:57:20;9.98;;;2.95;;
35550;SDS011;21655;46.056;13.616;2023-03-08T12:59:58;7.90;;;3.42;;
35550;SDS011;21655;46.056;13.616;2023-03-08T13:02:30;7.45;;;3.70;;
35550;SDS011;21655;46.056;13.616;2023-03-08T13:05:17;13.15;;;3.70;;
35550;SDS011;21655;46.056;13.616;2023-03-08T13:07:49;7.05;;;3.25;;
35550;SDS011;21655;46.056;13.616;2023-03-08T13:10:32;8.40;;;3.17;;
35550;SDS011;21655;46.056;13.616;2023-03-08T13:15:30;22.58;;;8.50;;
35550;SDS011;21655;46.056;13.616;2023-03-08T13:18:07;9.15;;;5.38;;
35550;SDS011;21655;46.056;13.616;2023-03-08T13:28:19;13.05;;;5.32;;
35550;SDS011;21655;46.056;13.616;2023-03-08T13:33:25;7.82;;;3.88;;
35550;SDS011;21655;46.056;13.616;2023-03-08T13:36:15;8.52;;;4.85;;
35550;SDS011;21655;46.056;13.616;2023-03-08T13:38:43;8.85;;;3.63;;
35550;SDS011;21655;46.056;13.616;2023-03-08T13:41:18;5.57;;;3.15;;
35550;SDS011;21655;46.056;13.616;2023-03-08T13:43:43;9.20;;;3.13;;
35550;SDS011;21655;46.056;13.616;2023-03-08T13:46:12;7.22;;;3.40;;
35550;SDS011;21655;46.056;13.616;2023-03-08T13:48:42;9.87;;;4.63;;
35550;SDS011;21655;46.056;13.616;2023-03-08T13:51:08;8.27;;;2.88;;
35550;SDS011;21655;46.056;13.616;2023-03-08T13:53:42;8.05;;;4.18;;
35550;SDS011;21655;46.056;13.616;2023-03-08T13:56:18;6.93;;;3.72;;
35550;SDS011;21655;46.056;13.616;2023-03-08T13:58:47;8.55;;;4.10;;
35550;SDS011;21655;46.056;13.616;2023-03-08T14:01:20;9.23;;;4.20;;
35550;SDS011;21655;46.056;13.616;2023-03-08T14:03:48;10.90;;;5.03;;
35550;SDS011;21655;46.056;13.616;2023-03-08T14:06:18;6.13;;;3.50;;
35550;SDS011;21655;46.056;13.616;2023-03-08T14:08:44;8.00;;;4.10;;
35550;SDS011;21655;46.056;13.616;2023-03-08T14:11:18;7.65;;;3.58;;
35550;SDS011;21655;46.056;13.616;2023-03-08T14:13:47;8.95;;;5.57;;
35550;SDS011;21655;46.056;13.616;2023-03-08T14:18:53;11.02;;;4.05;;
35550;SDS011;21655;46.056;13.616;2023-03-08T14:21:19;8.02;;;3.88;;
35550;SDS011;21655;46.056;13.616;2023-03-08T14:23:48;7.65;;;3.53;;
35550;SDS011;21655;46.056;13.616;2023-03-08T14:26:35;7.93;;;3.97;;
35550;SDS011;21655;46.056;13.616;2023-03-08T14:29:12;10.30;;;3.35;;
35550;SDS011;21655;46.056;13.616;2023-03-08T14:34:21;12.48;;;4.45;;
35550;SDS011;21655;46.056;13.616;2023-03-08T14:36:55;7.78;;;3.63;;
35550;SDS011;21655;46.056;13.616;2023-03-08T14:39:23;12.18;;;5.10;;
35550;SDS011;21655;46.056;13.616;2023-03-08T14:41:50;7.15;;;3.70;;
35550;SDS011;21655;46.056;13.616;2023-03-08T14:44:21;8.70;;;3.17;;
35550;SDS011;21655;46.056;13.616;2023-03-08T14:46:49;9.02;;;4.38;;
35550;SDS011;21655;46.056;13.616;2023-03-08T14:49:22;6.40;;;3.70;;
35550;SDS011;21655;46.056;13.616;2023-03-08T14:51:49;6.95;;;3.17;;
35550;SDS011;21655;46.056;13.616;2023-03-08T14:57:00;7.87;;;4.00;;
35550;SDS011;21655;46.056;13.616;2023-03-08T14:59:39;11.88;;;4.45;;
35550;SDS011;21655;46.056;13.616;2023-03-08T15:02:09;8.80;;;3.53;;
35550;SDS011;21655;46.056;13.616;2023-03-08T15:04:36;12.85;;;3.40;;
35550;SDS011;21655;46.056;13.616;2023-03-08T15:07:03;9.20;;;3.13;;
35550;SDS011;21655;46.056;13.616;2023-03-08T15:09:29;10.68;;;4.05;;
35550;SDS011;21655;46.056;13.616;2023-03-08T15:11:56;8.77;;;3.45;;
35550;SDS011;21655;46.056;13.616;2023-03-08T15:14:24;8.63;;;3.13;;
35550;SDS011;21655;46.056;13.616;2023-03-08T15:16:49;7.10;;;2.97;;
35550;SDS011;21655;46.056;13.616;2023-03-08T15:19:15;7.57;;;2.92;;
35550;SDS011;21655;46.056;13.616;2023-03-08T15:21:41;5.82;;;2.90;;
35550;SDS011;21655;46.056;13.616;2023-03-08T15:24:09;5.45;;;2.97;;
35550;SDS011;21655;46.056;13.616;2023-03-08T15:26:41;7.80;;;2.92;;
35550;SDS011;21655;46.056;13.616;2023-03-08T15:29:11;10.75;;;3.08;;
35550;SDS011;21655;46.056;13.616;2023-03-08T15:31:52;9.93;;;3.90;;
35550;SDS011;21655;46.056;13.616;2023-03-08T15:34:18;7.07;;;3.03;;
35550;SDS011;21655;46.056;13.616;2023-03-08T15:36:44;15.13;;;3.75;;
35550;SDS011;21655;46.056;13.616;2023-03-08T15:39:13;8.48;;;3.33;;
35550;SDS011;21655;46.056;13.616;2023-03-08T15:41:38;10.93;;;3.03;;